createdAt,value
2018-07-17T00:01:21.307Z,12.17
2018-07-17T00:04:02.670Z,12.77
2018-07-17T00:06:44.244Z,12.73
2018-07-17T00:09:26.009Z,11.77
2018-07-17T00:12:07.135Z,13.50
2018-07-17T00:14:48.603Z,11.20
2018-07-17T00:17:30.087Z,12.80
2018-07-17T00:20:11.778Z,11.10
2018-07-17T00:22:53.179Z,11.40
2018-07-17T00:25:35.361Z,12.20
2018-07-17T00:28:17.518Z,12.13
2018-07-17T00:30:59.211Z,12.67
2018-07-17T00:33:40.234Z,11.50
2018-07-17T00:36:21.744Z,11.27
2018-07-17T00:39:03.562Z,10.73
2018-07-17T00:41:45.341Z,11.67
2018-07-17T00:44:26.892Z,11.30
2018-07-17T00:47:08.583Z,10.93
2018-07-17T00:49:50.091Z,10.33
2018-07-17T00:52:32.269Z,10.90
2018-07-17T00:55:14.408Z,11.43
2018-07-17T00:57:56.861Z,10.30
2018-07-17T01:00:52.501Z,10.73
2018-07-17T01:03:39.313Z,12.13
2018-07-17T01:06:25.713Z,9.90
2018-07-17T01:09:11.807Z,10.60
2018-07-17T01:11:58.517Z,11.60
2018-07-17T01:14:46.966Z,9.90
2018-07-17T01:17:29.782Z,9.00
2018-07-17T01:20:11.371Z,10.23
2018-07-17T01:22:53.060Z,9.37
2018-07-17T01:25:34.444Z,9.80
2018-07-17T01:28:16.799Z,8.90
2018-07-17T01:30:58.239Z,8.60
2018-07-17T01:33:39.922Z,9.40
2018-07-17T01:36:21.413Z,8.50
2018-07-17T01:39:03.001Z,9.63
2018-07-17T01:41:45.951Z,10.17
2018-07-17T01:44:28.229Z,8.07
2018-07-17T01:47:09.505Z,8.30
2018-07-17T01:49:51.403Z,8.60
2018-07-17T01:52:34.323Z,7.87
2018-07-17T01:55:15.810Z,8.63
2018-07-17T01:57:57.857Z,8.97
2018-07-17T02:00:39.415Z,8.80
2018-07-17T02:03:21.359Z,8.90
2018-07-17T02:06:02.109Z,7.53
2018-07-17T02:08:44.053Z,8.70
2018-07-17T02:11:25.300Z,8.03
2018-07-17T02:14:07.031Z,8.37
2018-07-17T02:16:48.515Z,8.27
2018-07-17T02:19:30.282Z,6.90
2018-07-17T02:22:11.903Z,7.80
2018-07-17T02:24:54.640Z,8.03
2018-07-17T02:27:37.131Z,6.90
2018-07-17T02:30:19.125Z,7.60
2018-07-17T02:33:00.268Z,7.20
2018-07-17T02:35:42.093Z,7.03
2018-07-17T02:38:23.814Z,6.90
2018-07-17T02:41:05.639Z,7.00
2018-07-17T02:43:47.568Z,7.50
2018-07-17T02:46:29.353Z,6.63
2018-07-17T02:49:10.830Z,8.30
2018-07-17T02:51:51.827Z,7.77
2018-07-17T02:54:33.623Z,7.07
2018-07-17T02:57:15.371Z,7.53
2018-07-17T02:59:56.935Z,7.60
2018-07-17T03:02:38.590Z,7.43
2018-07-17T03:05:20.790Z,7.00
2018-07-17T03:08:02.075Z,7.27
2018-07-17T03:10:43.560Z,6.60
2018-07-17T03:13:25.388Z,7.20
2018-07-17T03:16:07.455Z,7.00
2018-07-17T03:18:49.000Z,7.70
2018-07-17T03:21:30.358Z,7.60
2018-07-17T03:24:12.071Z,6.53
2018-07-17T03:26:53.841Z,7.40
2018-07-17T03:29:35.398Z,7.40
2018-07-17T03:32:16.780Z,7.77
2018-07-17T03:34:58.165Z,7.03
2018-07-17T03:37:39.707Z,7.20
2018-07-17T03:40:21.442Z,7.47
2018-07-17T03:43:03.789Z,7.80
2018-07-17T03:45:44.941Z,7.40
2018-07-17T03:48:27.175Z,7.10
2018-07-17T03:51:09.388Z,6.50
2018-07-17T03:53:51.136Z,8.07
2018-07-17T03:56:32.920Z,7.50
2018-07-17T03:59:14.823Z,8.70
2018-07-17T04:01:56.210Z,8.80
2018-07-17T04:04:37.841Z,8.37
2018-07-17T04:07:19.820Z,8.17
2018-07-17T04:10:01.689Z,7.53
2018-07-17T04:12:43.065Z,7.47
2018-07-17T04:15:24.493Z,7.80
2018-07-17T04:18:06.289Z,7.60
2018-07-17T04:20:48.652Z,8.27
2018-07-17T04:23:30.032Z,8.00
2018-07-17T04:26:11.728Z,8.57
2018-07-17T04:28:53.372Z,9.13
2018-07-17T04:31:35.022Z,8.20
2018-07-17T04:34:16.657Z,8.00
2018-07-17T04:36:57.428Z,8.97
2018-07-17T04:39:39.060Z,7.93
2018-07-17T04:42:19.860Z,9.00
2018-07-17T04:45:01.514Z,7.70
2018-07-17T04:47:43.170Z,8.63
2018-07-17T04:50:23.811Z,9.30
2018-07-17T04:53:04.688Z,8.27
2018-07-17T04:55:45.356Z,8.60
2018-07-17T04:58:27.453Z,8.23
2018-07-17T05:01:09.003Z,7.90
2018-07-17T05:03:50.844Z,8.17
2018-07-17T05:06:32.478Z,8.37
2018-07-17T05:09:13.400Z,8.50
2018-07-17T05:11:54.070Z,8.50
2018-07-17T05:14:34.819Z,9.27
2018-07-17T05:17:15.767Z,8.17
2018-07-17T05:19:57.256Z,8.90
2018-07-17T05:22:39.112Z,8.60
2018-07-17T05:25:19.936Z,7.60
2018-07-17T05:28:01.803Z,8.90
2018-07-17T05:30:43.600Z,8.70
2018-07-17T05:33:25.314Z,8.37
2018-07-17T05:36:07.185Z,8.70
2018-07-17T05:38:49.683Z,8.10
2018-07-17T05:41:31.999Z,7.50
2018-07-17T05:44:13.692Z,8.53
2018-07-17T05:46:54.766Z,10.93
2018-07-17T05:49:36.672Z,7.83
2018-07-17T05:52:18.075Z,7.60
2018-07-17T05:54:59.329Z,7.83
2018-07-17T05:57:40.816Z,6.60
2018-07-17T06:00:23.581Z,7.50
2018-07-17T06:03:04.948Z,7.00
2018-07-17T06:05:46.603Z,7.00
2018-07-17T06:08:28.457Z,7.17
2018-07-17T06:11:10.118Z,7.63
2018-07-17T06:13:51.468Z,7.23
2018-07-17T06:16:33.094Z,8.00
2018-07-17T06:19:14.854Z,7.10
2018-07-17T06:21:56.644Z,6.37
2018-07-17T06:24:38.337Z,6.50
2018-07-17T06:27:19.822Z,6.60
2018-07-17T06:30:01.718Z,6.03
2018-07-17T06:32:43.815Z,6.53
2018-07-17T06:35:28.174Z,6.37
2018-07-17T06:38:10.169Z,7.30
2018-07-17T06:40:51.856Z,6.20
2018-07-17T06:43:33.760Z,7.10
2018-07-17T06:46:14.592Z,5.60
2018-07-17T06:48:55.313Z,5.97
2018-07-17T06:51:36.882Z,5.20
2018-07-17T06:54:18.554Z,6.27
2018-07-17T06:57:00.232Z,6.50
2018-07-17T06:59:41.957Z,5.97
2018-07-17T07:02:23.535Z,5.70
2018-07-17T07:05:05.440Z,6.00
2018-07-17T07:07:47.435Z,5.67
2018-07-17T07:10:28.727Z,6.10
2018-07-17T07:13:10.394Z,7.03
2018-07-17T07:15:51.324Z,6.10
2018-07-17T07:18:32.899Z,6.30
2018-07-17T07:21:14.466Z,5.50
2018-07-17T07:23:55.281Z,5.83
2018-07-17T07:26:36.784Z,5.80
2018-07-17T07:29:18.407Z,5.80
2018-07-17T07:31:59.241Z,6.50
2018-07-17T07:34:40.970Z,5.67
2018-07-17T07:37:22.127Z,5.93
2018-07-17T07:40:03.269Z,6.33
2018-07-17T07:42:44.815Z,5.20
2018-07-17T07:45:26.586Z,5.90
2018-07-17T07:48:07.246Z,6.50
2018-07-17T07:50:48.724Z,6.90
2018-07-17T07:53:30.754Z,5.67
2018-07-17T07:56:11.872Z,6.10
2018-07-17T07:58:53.739Z,5.47
2018-07-17T08:01:35.174Z,5.53
2018-07-17T08:04:16.716Z,5.37
2018-07-17T08:06:58.348Z,5.43
2018-07-17T08:09:39.795Z,5.20
2018-07-17T08:12:20.584Z,5.50
2018-07-17T08:15:02.131Z,5.57
2018-07-17T08:17:43.315Z,5.70
2018-07-17T08:20:24.695Z,5.20
2018-07-17T08:23:06.714Z,5.67
2018-07-17T08:25:48.003Z,4.87
2018-07-17T08:28:28.733Z,5.17
2018-07-17T08:31:10.282Z,5.20
2018-07-17T08:33:51.866Z,5.53
2018-07-17T08:36:33.474Z,5.40
2018-07-17T08:39:14.313Z,4.73
2018-07-17T08:41:55.557Z,5.00
2018-07-17T08:44:36.585Z,4.83
2018-07-17T08:47:17.272Z,4.57
2018-07-17T08:49:58.976Z,5.10
2018-07-17T08:52:39.746Z,4.70
2018-07-17T08:55:21.304Z,4.93
2018-07-17T08:58:02.904Z,5.03
2018-07-17T09:00:44.069Z,4.70
2018-07-17T09:03:25.298Z,4.50
2018-07-17T09:06:06.816Z,4.03
2018-07-17T09:08:48.465Z,4.23
2018-07-17T09:11:30.280Z,4.83
2018-07-17T09:14:11.892Z,4.80
2018-07-17T09:16:53.537Z,4.80
2018-07-17T09:19:34.429Z,4.63
2018-07-17T09:22:16.167Z,4.43
2018-07-17T09:24:57.898Z,4.57
2018-07-17T09:27:39.601Z,4.63
2018-07-17T09:30:21.291Z,4.70
2018-07-17T09:33:03.023Z,5.17
2018-07-17T09:35:44.801Z,5.10
2018-07-17T09:38:25.476Z,4.80
2018-07-17T09:41:08.133Z,4.27
2018-07-17T09:43:49.807Z,4.60
2018-07-17T09:46:30.556Z,5.07
2018-07-17T09:49:12.095Z,4.30
2018-07-17T09:51:53.784Z,5.37
2018-07-17T09:54:34.467Z,4.63
2018-07-17T09:57:16.089Z,4.90
2018-07-17T09:59:57.655Z,5.30
2018-07-17T10:02:39.210Z,4.80
2018-07-17T10:05:20.841Z,3.80
2018-07-17T10:08:02.404Z,4.37
2018-07-17T10:10:44.171Z,4.63
2018-07-17T10:13:25.643Z,4.30
2018-07-17T10:16:07.464Z,3.70
2018-07-17T10:18:48.942Z,3.97
2018-07-17T10:21:30.518Z,3.90
2018-07-17T10:24:12.137Z,4.87
2018-07-17T10:26:54.126Z,4.33
2018-07-17T10:29:35.821Z,4.80
2018-07-17T10:32:17.015Z,5.30
2018-07-17T10:34:58.695Z,5.10
2018-07-17T10:37:40.390Z,3.90
2018-07-17T10:40:22.865Z,4.00
2018-07-17T10:43:03.870Z,4.20
2018-07-17T10:45:45.319Z,4.73
2018-07-17T10:48:26.946Z,3.90
2018-07-17T10:51:08.533Z,4.30
2018-07-17T10:53:49.995Z,3.93
2018-07-17T10:56:31.610Z,4.10
2018-07-17T10:59:13.323Z,4.43
2018-07-17T11:01:54.042Z,3.53
2018-07-17T11:04:35.698Z,3.90
2018-07-17T11:07:17.331Z,3.83
2018-07-17T11:09:59.238Z,4.23
2018-07-17T11:12:40.070Z,4.50
2018-07-17T11:15:21.940Z,4.37
2018-07-17T11:18:03.572Z,4.10
2018-07-17T11:20:45.065Z,3.87
2018-07-17T11:23:25.935Z,4.73
2018-07-17T11:26:07.548Z,4.30
2018-07-17T11:28:49.200Z,4.03
2018-07-17T11:31:30.069Z,3.93
2018-07-17T11:34:11.582Z,4.50
2018-07-17T11:36:53.306Z,3.60
2018-07-17T11:39:35.028Z,4.10
2018-07-17T11:42:16.538Z,4.30
2018-07-17T11:44:58.366Z,4.17
2018-07-17T11:47:39.877Z,4.20
2018-07-17T11:50:22.029Z,4.00
2018-07-17T11:53:03.535Z,3.90
2018-07-17T11:55:45.194Z,3.77
2018-07-17T11:58:26.855Z,4.00
2018-07-17T12:01:08.584Z,4.77
2018-07-17T12:03:49.398Z,4.43
2018-07-17T12:06:31.158Z,4.30
2018-07-17T12:09:12.763Z,3.83
2018-07-17T12:11:53.927Z,4.40
2018-07-17T12:14:35.679Z,4.10
2018-07-17T12:17:17.291Z,4.83
2018-07-17T12:19:59.424Z,4.23
2018-07-17T12:22:41.298Z,4.10
2018-07-17T12:25:22.790Z,4.40
2018-07-17T12:28:04.356Z,3.70
2018-07-17T12:30:45.616Z,3.93
2018-07-17T12:33:27.149Z,4.27
2018-07-17T12:36:08.241Z,3.83
2018-07-17T12:38:50.377Z,4.13
2018-07-17T12:41:31.530Z,4.40
2018-07-17T12:44:12.363Z,3.97
2018-07-17T12:46:53.913Z,4.03
2018-07-17T12:49:35.569Z,4.57
2018-07-17T12:52:17.261Z,3.83
2018-07-17T12:54:59.003Z,3.27
2018-07-17T12:57:39.751Z,4.63
2018-07-17T13:00:20.767Z,4.03
2018-07-17T13:03:02.241Z,29.53
2018-07-17T13:05:43.023Z,4.90
2018-07-17T13:08:24.687Z,5.30
2018-07-17T13:11:05.640Z,3.83
2018-07-17T13:13:47.334Z,4.33
2018-07-17T13:16:28.892Z,3.83
2018-07-17T13:19:10.536Z,4.17
2018-07-17T13:21:52.194Z,4.70
2018-07-17T13:24:33.104Z,3.40
2018-07-17T13:27:14.739Z,3.80
2018-07-17T13:29:55.525Z,3.73
2018-07-17T13:32:37.328Z,3.33
2018-07-17T13:35:18.659Z,3.00
2018-07-17T13:37:59.560Z,4.27
2018-07-17T13:40:41.736Z,3.40
2018-07-17T13:43:22.922Z,3.90
2018-07-17T13:46:04.709Z,3.60
2018-07-17T13:48:46.198Z,3.27
2018-07-17T13:51:28.350Z,3.70
2018-07-17T13:54:09.427Z,3.13
2018-07-17T13:56:51.017Z,3.47
2018-07-17T13:59:33.095Z,3.00
2018-07-17T14:02:14.401Z,4.37
2018-07-17T14:04:56.317Z,3.43
2018-07-17T14:07:37.690Z,3.20
2018-07-17T14:10:18.389Z,4.23
2018-07-17T14:12:59.478Z,3.50
2018-07-17T14:15:41.124Z,3.60
2018-07-17T14:18:22.675Z,3.17
2018-07-17T14:21:04.431Z,2.67
2018-07-17T14:23:46.261Z,2.80
2018-07-17T14:26:27.848Z,3.33
2018-07-17T14:29:10.384Z,3.20
2018-07-17T14:31:51.987Z,2.83
2018-07-17T14:34:33.634Z,3.63
2018-07-17T14:37:15.297Z,3.10
2018-07-17T14:39:57.390Z,4.13
2018-07-17T14:42:38.994Z,2.80
2018-07-17T14:45:20.099Z,3.50
2018-07-17T14:48:00.828Z,3.03
2018-07-17T14:50:43.442Z,3.13
2018-07-17T14:53:24.341Z,3.47
2018-07-17T14:56:05.859Z,3.63
2018-07-17T14:58:47.468Z,3.67
2018-07-17T15:01:29.212Z,3.43
2018-07-17T15:04:10.047Z,4.30
2018-07-17T15:06:51.631Z,4.27
2018-07-17T15:09:33.163Z,3.20
2018-07-17T15:12:14.643Z,4.07
2018-07-17T15:14:56.317Z,4.10
2018-07-17T15:17:37.924Z,4.40
2018-07-17T15:20:19.720Z,3.60
2018-07-17T15:23:01.463Z,3.53
2018-07-17T15:25:43.276Z,3.57
2018-07-17T15:28:25.073Z,3.33
2018-07-17T15:31:07.076Z,3.50
2018-07-17T15:33:48.777Z,3.40
2018-07-17T15:36:29.546Z,3.20
2018-07-17T15:39:12.350Z,3.00
2018-07-17T15:41:53.814Z,3.50
2018-07-17T15:44:35.302Z,4.03
2018-07-17T15:47:17.117Z,3.70
2018-07-17T15:49:58.728Z,3.57
2018-07-17T15:52:41.051Z,4.90
2018-07-17T15:55:22.514Z,3.50
2018-07-17T15:58:03.911Z,3.70
2018-07-17T16:00:45.597Z,4.57
2018-07-17T16:03:28.078Z,4.07
2018-07-17T16:06:09.271Z,3.60
2018-07-17T16:08:50.871Z,3.43
2018-07-17T16:11:32.311Z,3.50
2018-07-17T16:14:13.419Z,3.60
2018-07-17T16:16:55.294Z,3.57
2018-07-17T16:19:36.490Z,4.93
2018-07-17T16:22:17.214Z,4.13
2018-07-17T16:24:59.042Z,3.60
2018-07-17T16:27:40.620Z,3.77
2018-07-17T16:30:21.771Z,3.50
2018-07-17T16:33:02.905Z,3.77
2018-07-17T16:35:44.569Z,4.47
2018-07-17T16:38:26.264Z,3.90
2018-07-17T16:41:07.087Z,4.30
2018-07-17T16:43:48.542Z,3.97
2018-07-17T16:46:29.256Z,4.13
2018-07-17T16:49:11.051Z,4.00
2018-07-17T16:51:52.623Z,4.03
2018-07-17T16:54:34.306Z,4.43
2018-07-17T16:57:15.909Z,4.00
2018-07-17T16:59:57.549Z,4.10
2018-07-17T17:02:39.604Z,3.67
2018-07-17T17:14:42.527Z,4.50
2018-07-17T17:17:24.309Z,4.40
2018-07-17T17:20:05.334Z,4.10
2018-07-17T17:22:47.106Z,3.67
2018-07-17T17:25:28.636Z,4.00
2018-07-17T17:28:10.635Z,3.97
2018-07-17T17:30:52.124Z,4.80
2018-07-17T17:33:33.928Z,4.73
2018-07-17T17:36:14.618Z,4.47
2018-07-17T17:38:56.299Z,4.43
2018-07-17T17:41:37.979Z,4.63
2018-07-17T17:44:19.546Z,3.97
2018-07-17T17:47:01.235Z,4.50
2018-07-17T17:49:43.136Z,4.17
2018-07-17T17:52:24.949Z,4.10
2018-07-17T17:55:05.908Z,4.73
2018-07-17T17:57:46.981Z,4.13
2018-07-17T18:00:28.671Z,4.40
2018-07-17T18:03:09.919Z,4.47
2018-07-17T18:05:51.878Z,4.70
2018-07-17T18:08:33.100Z,4.97
2018-07-17T18:11:13.872Z,5.70
2018-07-17T18:13:55.894Z,5.10
2018-07-17T18:16:37.123Z,5.03
2018-07-17T18:19:17.825Z,4.70
2018-07-17T18:21:59.498Z,4.70
2018-07-17T18:24:41.431Z,5.23
2018-07-17T18:27:23.282Z,4.67
2018-07-17T18:30:04.479Z,5.13
2018-07-17T18:32:45.102Z,4.97
2018-07-17T18:35:25.849Z,4.90
2018-07-17T18:38:07.481Z,5.77
2018-07-17T18:40:49.269Z,5.80
2018-07-17T18:43:30.882Z,5.57
2018-07-17T18:46:12.343Z,4.53
2018-07-17T18:48:53.965Z,6.17
2018-07-17T18:51:35.621Z,6.87
2018-07-17T18:54:17.264Z,6.67
2018-07-17T18:56:58.971Z,6.80
2018-07-17T18:59:40.571Z,6.37
2018-07-17T19:02:22.005Z,7.13
2018-07-17T19:05:03.556Z,6.17
2018-07-17T19:07:44.154Z,6.70
2018-07-17T19:10:25.762Z,7.53
2018-07-17T19:13:06.490Z,7.07
2018-07-17T19:15:48.048Z,6.93
2018-07-17T19:18:28.789Z,6.73
2018-07-17T19:21:09.531Z,6.93
2018-07-17T19:23:51.352Z,7.00
2018-07-17T19:26:32.779Z,7.23
2018-07-17T19:29:14.434Z,7.07
2018-07-17T19:31:56.264Z,7.90
2018-07-17T19:34:37.717Z,7.13
2018-07-17T19:37:18.363Z,6.80
2018-07-17T19:39:59.047Z,7.87
2018-07-17T19:42:39.761Z,7.23
2018-07-17T19:45:20.627Z,6.93
2018-07-17T19:48:02.358Z,7.80
2018-07-17T19:50:43.955Z,5.90
2018-07-17T19:53:25.564Z,7.27
2018-07-17T19:56:07.254Z,7.17
2018-07-17T19:58:48.917Z,7.43
2018-07-17T20:01:30.608Z,7.23
2018-07-17T20:04:12.172Z,7.80
2018-07-17T20:06:53.642Z,7.63
2018-07-17T20:09:34.407Z,7.90
2018-07-17T20:12:16.102Z,7.07
2018-07-17T20:18:09.113Z,7.70
2018-07-17T20:20:50.148Z,8.67
2018-07-17T20:23:31.778Z,7.83
2018-07-17T20:26:14.589Z,7.87
2018-07-17T20:28:55.604Z,8.13
2018-07-17T20:31:37.486Z,7.60
2018-07-17T20:34:18.960Z,8.13
2018-07-17T20:37:00.174Z,8.30
2018-07-17T20:39:41.838Z,8.20
2018-07-17T20:42:22.755Z,9.60
2018-07-17T20:45:04.381Z,9.00
2018-07-17T20:47:45.928Z,10.10
2018-07-17T20:50:27.337Z,8.53
2018-07-17T20:53:08.790Z,9.23
2018-07-17T20:55:50.231Z,8.00
2018-07-17T20:58:30.898Z,9.33
2018-07-17T21:01:11.663Z,14.60
2018-07-17T21:03:53.342Z,18.57
2018-07-17T21:06:35.406Z,7.73
2018-07-17T21:09:16.744Z,8.10
2018-07-17T21:11:58.389Z,7.90
2018-07-17T21:14:40.018Z,7.43
2018-07-17T21:17:21.626Z,7.70
2018-07-17T21:20:02.296Z,7.13
2018-07-17T21:22:44.004Z,6.80
2018-07-17T21:25:25.645Z,6.60
2018-07-17T21:28:07.674Z,6.53
2018-07-17T21:30:48.832Z,6.90
2018-07-17T21:33:29.639Z,6.60
2018-07-17T21:36:11.204Z,6.33
2018-07-17T21:38:52.013Z,6.73
2018-07-17T21:41:33.617Z,6.20
2018-07-17T21:44:15.768Z,6.47
2018-07-17T21:46:57.021Z,6.00
2018-07-17T21:49:37.786Z,6.20
2018-07-17T21:52:19.390Z,6.17
2018-07-17T21:55:00.975Z,5.83
2018-07-17T21:57:41.943Z,5.40
2018-07-17T22:00:23.567Z,5.33
2018-07-17T22:03:04.292Z,4.43
2018-07-17T22:05:45.747Z,4.80
2018-07-17T22:08:26.460Z,4.27
2018-07-17T22:11:08.587Z,4.77
2018-07-17T22:13:49.753Z,4.50
2018-07-17T22:16:30.568Z,4.63
2018-07-17T22:19:11.284Z,4.67
2018-07-17T22:21:52.174Z,4.70
2018-07-17T22:24:32.939Z,4.10
2018-07-17T22:27:14.591Z,4.70
2018-07-17T22:29:55.322Z,4.20
2018-07-17T22:32:36.929Z,4.93
2018-07-17T22:35:17.737Z,4.63
2018-07-17T22:37:58.469Z,4.80
2018-07-17T22:40:39.081Z,4.60
2018-07-17T22:43:20.812Z,4.40
2018-07-17T22:46:02.522Z,4.23
2018-07-17T22:48:44.031Z,4.00
2018-07-17T22:51:24.721Z,4.47
2018-07-17T22:54:05.553Z,4.10
2018-07-17T22:56:47.531Z,3.90
2018-07-17T22:59:28.822Z,3.50
2018-07-17T23:02:09.657Z,3.00
2018-07-17T23:04:50.320Z,3.50
2018-07-17T23:07:31.975Z,3.53
2018-07-17T23:10:13.641Z,3.20
2018-07-17T23:12:54.999Z,3.57
2018-07-17T23:15:36.987Z,3.67
2018-07-17T23:18:18.240Z,3.67
2018-07-17T23:20:58.936Z,4.27
2018-07-17T23:23:41.056Z,4.30
2018-07-17T23:26:22.205Z,3.50
2018-07-17T23:29:03.823Z,4.53
2018-07-17T23:31:44.624Z,3.30
2018-07-17T23:34:25.471Z,3.60
2018-07-17T23:37:06.211Z,3.20
2018-07-17T23:39:46.980Z,3.83
2018-07-17T23:42:27.677Z,4.13
2018-07-17T23:45:09.628Z,3.90
2018-07-17T23:47:50.863Z,3.63
2018-07-17T23:50:31.636Z,4.10
2018-07-17T23:53:12.442Z,3.97
2018-07-17T23:55:53.957Z,3.63
2018-07-17T23:58:34.646Z,3.50
